createdAt,value
2017-08-02T00:02:05.768Z,20.00
2017-08-02T00:04:32.183Z,19.90
2017-08-02T00:06:59.286Z,20.00
2017-08-02T00:09:25.686Z,20.00
2017-08-02T00:11:52.094Z,20.00
2017-08-02T00:14:18.491Z,20.10
2017-08-02T00:16:44.875Z,20.10
2017-08-02T00:19:11.296Z,20.10
2017-08-02T00:21:37.726Z,20.00
2017-08-02T00:24:04.831Z,20.10
2017-08-02T00:26:33.043Z,20.10
2017-08-02T00:28:59.398Z,20.10
2017-08-02T00:31:25.803Z,20.10
2017-08-02T00:33:52.231Z,20.10
2017-08-02T00:36:18.635Z,20.10
2017-08-02T00:38:44.991Z,20.10
2017-08-02T00:41:11.396Z,20.10
2017-08-02T00:43:37.775Z,20.10
2017-08-02T00:46:04.139Z,20.00
2017-08-02T00:48:30.503Z,20.10
2017-08-02T00:51:11.819Z,20.10
2017-08-02T00:53:38.237Z,20.10
2017-08-02T00:56:05.352Z,20.10
2017-08-02T00:58:31.756Z,20.10
2017-08-02T01:00:58.872Z,20.10
2017-08-02T01:03:25.279Z,20.10
2017-08-02T01:05:51.687Z,20.10
2017-08-02T01:08:18.064Z,20.10
2017-08-02T01:10:45.188Z,20.10
2017-08-02T01:13:11.831Z,20.10
2017-08-02T01:15:38.190Z,20.00
2017-08-02T01:18:04.569Z,20.10
2017-08-02T01:20:30.943Z,20.10
2017-08-02T01:22:58.059Z,20.10
2017-08-02T01:25:24.414Z,20.10
2017-08-02T01:27:50.870Z,20.10
2017-08-02T01:30:17.281Z,20.10
2017-08-02T01:32:43.663Z,20.00
2017-08-02T01:35:10.084Z,20.10
2017-08-02T01:37:36.499Z,20.10
2017-08-02T01:40:02.879Z,20.10
2017-08-02T01:42:29.287Z,20.10
2017-08-02T01:44:55.703Z,20.10
2017-08-02T01:47:22.083Z,20.10
2017-08-02T01:49:48.475Z,20.10
2017-08-02T01:52:14.899Z,20.10
2017-08-02T01:54:42.095Z,20.00
2017-08-02T01:57:08.493Z,20.00
2017-08-02T01:59:34.872Z,20.00
2017-08-02T02:02:03.063Z,19.90
2017-08-02T02:04:29.407Z,19.90
2017-08-02T02:06:55.804Z,19.90
2017-08-02T02:09:22.139Z,19.90
2017-08-02T02:11:48.578Z,19.80
2017-08-02T02:14:15.760Z,19.80
2017-08-02T02:16:42.115Z,19.80
2017-08-02T02:19:08.455Z,19.80
2017-08-02T02:21:34.850Z,19.70
2017-08-02T02:24:01.244Z,19.70
2017-08-02T02:26:27.607Z,19.70
2017-08-02T02:28:53.994Z,19.70
2017-08-02T02:31:20.355Z,19.60
2017-08-02T02:33:46.725Z,19.60
2017-08-02T02:36:13.903Z,19.60
2017-08-02T02:38:42.077Z,19.60
2017-08-02T02:41:08.443Z,19.60
2017-08-02T02:43:35.557Z,19.60
2017-08-02T02:46:01.937Z,19.60
2017-08-02T02:48:28.323Z,19.60
2017-08-02T02:50:54.727Z,19.50
2017-08-02T02:53:21.843Z,19.60
2017-08-02T02:55:48.211Z,19.60
2017-08-02T02:58:14.608Z,19.60
2017-08-02T03:00:41.727Z,19.60
2017-08-02T03:03:08.135Z,19.60
2017-08-02T03:05:34.534Z,19.60
2017-08-02T03:08:01.903Z,19.60
2017-08-02T03:10:30.103Z,19.70
2017-08-02T03:12:56.499Z,19.70
2017-08-02T03:15:22.847Z,19.70
2017-08-02T03:17:49.187Z,19.70
2017-08-02T03:20:15.595Z,19.70
2017-08-02T03:22:41.995Z,19.70
2017-08-02T03:25:08.384Z,19.70
2017-08-02T03:27:34.834Z,19.70
2017-08-02T03:30:01.148Z,19.70
2017-08-02T03:32:27.507Z,19.60
2017-08-02T03:34:53.943Z,19.60
2017-08-02T03:37:20.382Z,19.50
2017-08-02T03:39:46.743Z,19.60
2017-08-02T03:42:13.135Z,19.50
2017-08-02T03:44:39.572Z,19.50
2017-08-02T03:47:05.987Z,19.40
2017-08-02T03:49:32.351Z,19.30
2017-08-02T03:51:58.735Z,19.30
2017-08-02T03:54:25.843Z,19.20
2017-08-02T03:56:52.255Z,19.20
2017-08-02T03:59:18.607Z,19.10
2017-08-02T04:01:45.751Z,19.10
2017-08-02T04:04:12.168Z,19.10
2017-08-02T04:06:38.523Z,19.10
2017-08-02T04:09:04.946Z,19.10
2017-08-02T04:11:31.343Z,19.00
2017-08-02T04:13:57.738Z,19.10
2017-08-02T04:16:24.854Z,19.10
2017-08-02T04:18:51.271Z,19.10
2017-08-02T04:21:18.383Z,19.10
2017-08-02T04:23:44.760Z,19.10
2017-08-02T04:26:11.124Z,19.10
2017-08-02T04:28:37.475Z,19.10
2017-08-02T04:31:03.881Z,19.10
2017-08-02T04:33:30.278Z,19.10
2017-08-02T04:35:57.383Z,19.10
2017-08-02T04:38:23.792Z,19.00
2017-08-02T04:40:51.222Z,19.10
2017-08-02T04:43:17.595Z,19.10
2017-08-02T04:45:43.995Z,19.10
2017-08-02T04:48:10.400Z,19.10
2017-08-02T04:50:37.542Z,19.10
2017-08-02T04:53:03.943Z,19.10
2017-08-02T04:55:30.335Z,19.10
2017-08-02T04:57:56.707Z,19.20
2017-08-02T05:00:23.843Z,19.20
2017-08-02T05:02:50.239Z,19.20
2017-08-02T05:05:16.630Z,19.30
2017-08-02T05:07:42.971Z,19.30
2017-08-02T05:10:10.159Z,19.30
2017-08-02T05:12:36.531Z,19.30
2017-08-02T05:15:02.979Z,19.30
2017-08-02T05:17:29.351Z,19.30
2017-08-02T05:19:55.748Z,19.40
2017-08-02T05:22:22.202Z,19.40
2017-08-02T05:24:48.587Z,19.40
2017-08-02T05:27:14.979Z,19.40
2017-08-02T05:29:41.375Z,19.30
2017-08-02T05:32:07.748Z,19.40
2017-08-02T05:34:35.147Z,19.30
2017-08-02T05:37:01.531Z,19.40
2017-08-02T05:39:27.938Z,19.50
2017-08-02T05:41:55.084Z,19.60
2017-08-02T05:44:21.430Z,19.50
2017-08-02T05:46:47.799Z,19.70
2017-08-02T05:49:14.191Z,19.70
2017-08-02T05:51:40.572Z,19.70
2017-08-02T05:54:07.116Z,19.80
2017-08-02T05:56:33.512Z,19.90
2017-08-02T05:58:59.891Z,20.00
2017-08-02T06:01:26.315Z,20.10
2017-08-02T06:03:52.723Z,20.10
2017-08-02T06:06:20.831Z,20.20
2017-08-02T06:08:47.235Z,20.20
2017-08-02T06:11:13.671Z,20.20
2017-08-02T06:13:40.131Z,20.30
2017-08-02T06:16:06.564Z,20.20
2017-08-02T06:18:33.727Z,20.20
2017-08-02T06:21:00.127Z,20.20
2017-08-02T06:23:26.548Z,20.20
2017-08-02T06:25:52.983Z,20.20
2017-08-02T06:28:19.359Z,20.20
2017-08-02T06:30:45.782Z,20.20
2017-08-02T06:33:12.197Z,20.20
2017-08-02T06:35:38.616Z,20.20
2017-08-02T06:38:05.000Z,20.20
2017-08-02T06:40:32.169Z,20.30
2017-08-02T06:42:58.531Z,20.30
2017-08-02T06:45:24.955Z,20.30
2017-08-02T06:47:51.347Z,20.30
2017-08-02T06:50:17.738Z,20.50
2017-08-02T06:52:44.175Z,20.50
2017-08-02T06:55:10.568Z,20.70
2017-08-02T06:57:36.959Z,20.80
2017-08-02T07:00:03.359Z,20.90
2017-08-02T07:02:29.751Z,21.00
2017-08-02T07:04:56.079Z,21.00
2017-08-02T07:07:22.467Z,21.10
2017-08-02T07:09:48.927Z,21.20
2017-08-02T07:12:15.331Z,21.30
2017-08-02T07:14:41.731Z,21.40
2017-08-02T07:17:08.099Z,21.50
2017-08-02T07:19:34.435Z,21.70
2017-08-02T07:22:00.834Z,21.80
2017-08-02T07:24:27.993Z,22.10
2017-08-02T07:26:54.343Z,22.10
2017-08-02T07:29:20.697Z,22.30
2017-08-02T07:31:47.096Z,22.40
2017-08-02T07:34:14.687Z,22.50
2017-08-02T07:36:41.062Z,22.60
2017-08-02T07:39:07.438Z,22.50
2017-08-02T07:41:33.818Z,22.40
2017-08-02T07:44:00.227Z,22.40
2017-08-02T07:46:27.359Z,22.40
2017-08-02T07:48:54.421Z,22.40
2017-08-02T07:51:20.776Z,22.40
2017-08-02T07:53:47.171Z,22.50
2017-08-02T07:56:13.575Z,22.60
2017-08-02T07:58:39.998Z,22.70
2017-08-02T08:01:06.375Z,22.80
2017-08-02T08:03:32.727Z,22.90
2017-08-02T08:05:59.080Z,23.10
2017-08-02T08:08:26.471Z,23.30
2017-08-02T08:10:52.832Z,23.40
2017-08-02T08:13:19.203Z,23.60
2017-08-02T08:15:45.599Z,23.70
2017-08-02T08:18:11.979Z,23.80
2017-08-02T08:20:39.091Z,23.90
2017-08-02T08:23:05.511Z,23.90
2017-08-02T08:25:31.902Z,23.90
2017-08-02T08:27:58.319Z,23.80
2017-08-02T08:30:25.835Z,23.80
2017-08-02T08:32:52.199Z,23.90
2017-08-02T08:35:18.594Z,24.00
2017-08-02T08:37:44.941Z,24.20
2017-08-02T08:40:11.351Z,24.60
2017-08-02T08:42:37.745Z,25.40
2017-08-02T08:45:04.175Z,26.30
2017-08-02T08:47:30.584Z,27.40
2017-08-02T08:49:56.986Z,28.60
2017-08-02T08:52:23.377Z,29.70
2017-08-02T08:54:50.610Z,30.60
2017-08-02T08:57:17.008Z,30.60
2017-08-02T08:59:43.391Z,30.50
2017-08-02T09:02:09.686Z,30.20
2017-08-02T09:04:36.018Z,30.60
2017-08-02T09:07:02.378Z,31.70
2017-08-02T09:09:29.478Z,34.90
2017-08-02T09:11:55.891Z,34.80
2017-08-02T09:14:22.238Z,36.40
2017-08-02T09:16:48.575Z,37.70
2017-08-02T09:19:14.923Z,39.10
2017-08-02T09:21:41.360Z,40.20
2017-08-02T09:24:07.719Z,40.50
2017-08-02T09:26:34.136Z,40.80
2017-08-02T09:29:01.267Z,41.80
2017-08-02T09:31:28.367Z,42.00
2017-08-02T09:33:54.719Z,42.00
2017-08-02T09:36:21.096Z,42.50
2017-08-02T09:38:47.446Z,42.70
2017-08-02T09:41:13.852Z,42.50
2017-08-02T09:43:40.226Z,41.60
2017-08-02T09:46:06.584Z,41.00
2017-08-02T09:48:32.960Z,40.90
2017-08-02T09:50:59.357Z,40.30
2017-08-02T09:53:25.709Z,39.70
2017-08-02T09:55:52.108Z,39.20
2017-08-02T09:58:18.819Z,38.00
2017-08-02T10:00:45.175Z,36.90
2017-08-02T10:03:12.303Z,35.20
2017-08-02T10:05:38.739Z,35.10
2017-08-02T10:08:05.871Z,33.40
2017-08-02T10:10:33.071Z,32.60
2017-08-02T10:12:59.415Z,32.60
2017-08-02T10:15:25.791Z,32.00
2017-08-02T10:17:52.199Z,31.40
2017-08-02T10:20:18.573Z,31.10
2017-08-02T10:22:44.963Z,30.60
2017-08-02T10:25:11.321Z,30.30
2017-08-02T10:27:38.483Z,29.90
2017-08-02T10:30:04.820Z,29.80
2017-08-02T10:32:31.251Z,29.80
2017-08-02T10:34:57.635Z,29.70
2017-08-02T10:37:24.042Z,29.60
2017-08-02T10:39:50.403Z,29.70
2017-08-02T10:42:16.775Z,29.60
2017-08-02T10:44:43.152Z,29.70
2017-08-02T10:47:09.623Z,29.70
2017-08-02T10:49:36.108Z,29.60
2017-08-02T10:52:02.471Z,29.60
2017-08-02T10:54:28.845Z,29.40
2017-08-02T10:56:55.215Z,29.40
2017-08-02T10:59:21.558Z,29.40
2017-08-02T11:01:47.923Z,29.50
2017-08-02T11:04:14.311Z,29.50
2017-08-02T11:06:40.687Z,29.40
2017-08-02T11:09:07.079Z,29.20
2017-08-02T11:11:33.499Z,29.20
2017-08-02T11:13:59.897Z,29.20
2017-08-02T11:16:26.291Z,29.30
2017-08-02T11:18:52.674Z,29.30
2017-08-02T11:21:19.039Z,29.20
2017-08-02T11:23:45.419Z,29.20
2017-08-02T11:26:11.795Z,29.30
2017-08-02T11:28:38.149Z,29.30
2017-08-02T11:31:04.880Z,29.30
2017-08-02T11:33:32.272Z,29.30
2017-08-02T11:35:58.676Z,29.20
2017-08-02T11:38:25.097Z,29.20
2017-08-02T11:40:51.518Z,29.20
2017-08-02T11:43:17.891Z,29.20
2017-08-02T11:45:44.290Z,29.30
2017-08-02T11:48:11.401Z,29.50
2017-08-02T11:50:37.879Z,29.40
2017-08-02T11:53:04.339Z,29.50
2017-08-02T11:55:30.728Z,29.50
2017-08-02T11:57:57.125Z,29.40
2017-08-02T12:00:23.568Z,29.40
2017-08-02T12:02:49.952Z,29.20
2017-08-02T12:05:16.355Z,29.10
2017-08-02T12:07:42.787Z,29.00
2017-08-02T12:10:09.215Z,28.90
2017-08-02T12:12:35.591Z,28.90
2017-08-02T12:15:01.963Z,28.90
2017-08-02T12:17:28.315Z,28.90
2017-08-02T12:19:55.446Z,28.70
2017-08-02T12:22:21.867Z,28.70
2017-08-02T12:24:49.025Z,29.10
2017-08-02T12:27:15.419Z,29.10
2017-08-02T12:29:41.843Z,29.20
2017-08-02T12:32:08.199Z,29.30
2017-08-02T12:34:34.543Z,29.30
2017-08-02T12:37:00.968Z,29.30
2017-08-02T12:39:27.351Z,29.30
2017-08-02T12:41:53.767Z,29.40
2017-08-02T12:44:20.167Z,29.60
2017-08-02T12:46:46.539Z,30.00
2017-08-02T12:49:12.876Z,30.60
2017-08-02T12:51:39.324Z,31.00
2017-08-02T12:54:05.767Z,31.90
2017-08-02T12:56:32.119Z,33.10
2017-08-02T12:58:58.504Z,34.30
2017-08-02T13:01:25.982Z,34.80
2017-08-02T13:03:53.071Z,33.80
2017-08-02T13:06:19.467Z,33.80
2017-08-02T13:08:45.867Z,32.50
2017-08-02T13:11:12.251Z,31.70
2017-08-02T13:13:39.399Z,31.00
2017-08-02T13:16:05.771Z,31.00
2017-08-02T13:18:32.131Z,31.10
2017-08-02T13:20:58.536Z,31.30
2017-08-02T13:23:24.921Z,31.60
2017-08-02T13:25:51.313Z,31.90
2017-08-02T13:28:17.715Z,32.80
2017-08-02T13:30:44.099Z,33.50
2017-08-02T13:33:10.496Z,34.40
2017-08-02T13:35:37.607Z,35.50
2017-08-02T13:38:03.983Z,35.40
2017-08-02T13:40:30.344Z,36.30
2017-08-02T13:42:56.683Z,37.20
2017-08-02T13:45:23.099Z,38.70
2017-08-02T13:47:49.495Z,40.00
2017-08-02T13:50:15.869Z,40.50
2017-08-02T13:52:42.979Z,41.30
2017-08-02T13:55:09.319Z,41.20
2017-08-02T13:57:35.655Z,41.40
2017-08-02T14:00:02.032Z,41.90
2017-08-02T14:02:29.115Z,43.00
2017-08-02T14:04:55.524Z,42.90
2017-08-02T14:07:21.891Z,44.00
2017-08-02T14:09:48.248Z,44.90
2017-08-02T14:12:14.627Z,45.00
2017-08-02T14:14:41.746Z,42.20
2017-08-02T14:17:08.111Z,42.10
2017-08-02T14:19:34.504Z,41.70
2017-08-02T14:22:01.623Z,40.90
2017-08-02T14:24:27.963Z,40.80
2017-08-02T14:26:54.318Z,40.70
2017-08-02T14:29:20.699Z,40.30
2017-08-02T14:31:47.067Z,39.20
2017-08-02T14:34:13.475Z,37.90
2017-08-02T14:36:39.891Z,36.50
2017-08-02T14:39:06.255Z,36.20
2017-08-02T14:41:48.599Z,35.80
2017-08-02T14:44:14.963Z,35.40
2017-08-02T14:46:41.352Z,34.80
2017-08-02T14:49:07.731Z,34.00
2017-08-02T14:51:34.091Z,33.30
2017-08-02T14:54:00.456Z,32.70
2017-08-02T14:56:27.211Z,32.80
2017-08-02T14:58:53.591Z,33.40
2017-08-02T15:01:19.973Z,33.80
2017-08-02T15:03:46.379Z,33.70
2017-08-02T15:06:13.487Z,33.80
2017-08-02T15:08:40.622Z,34.20
2017-08-02T15:11:07.031Z,34.20
2017-08-02T15:13:33.475Z,34.20
2017-08-02T15:15:59.926Z,33.80
2017-08-02T15:18:26.251Z,33.10
2017-08-02T15:20:52.579Z,32.50
2017-08-02T15:23:18.943Z,31.90
2017-08-02T15:25:45.299Z,31.30
2017-08-02T15:28:11.671Z,30.80
2017-08-02T15:30:38.097Z,30.40
2017-08-02T15:33:04.454Z,30.00
2017-08-02T15:35:30.803Z,29.70
2017-08-02T15:37:57.259Z,29.40
2017-08-02T15:40:23.619Z,29.30
2017-08-02T15:42:50.019Z,29.10
2017-08-02T15:45:16.418Z,29.00
2017-08-02T15:47:42.791Z,28.90
2017-08-02T15:50:09.202Z,28.80
2017-08-02T15:52:35.611Z,28.80
2017-08-02T15:55:01.972Z,28.70
2017-08-02T15:57:28.367Z,28.60
2017-08-02T15:59:54.794Z,28.50
2017-08-02T16:02:21.163Z,28.40
2017-08-02T16:04:47.519Z,28.20
2017-08-02T16:07:13.924Z,28.20
2017-08-02T16:09:40.323Z,28.00
2017-08-02T16:12:06.701Z,27.90
2017-08-02T16:14:33.063Z,27.80
2017-08-02T16:17:00.219Z,27.80
2017-08-02T16:19:27.355Z,27.60
2017-08-02T16:21:53.771Z,27.60
2017-08-02T16:24:20.187Z,27.60
2017-08-02T16:26:47.304Z,27.60
2017-08-02T16:29:13.775Z,27.60
2017-08-02T16:31:40.185Z,27.60
2017-08-02T16:34:06.554Z,27.50
2017-08-02T16:36:32.981Z,27.50
2017-08-02T16:39:00.172Z,27.50
2017-08-02T16:41:27.344Z,27.30
2017-08-02T16:43:53.751Z,27.30
2017-08-02T16:46:20.870Z,27.10
2017-08-02T16:48:47.199Z,27.10
2017-08-02T16:51:13.821Z,27.10
2017-08-02T16:53:40.292Z,27.00
2017-08-02T16:56:06.714Z,27.00
2017-08-02T16:58:33.099Z,26.90
2017-08-02T17:00:59.475Z,26.80
2017-08-02T17:03:25.905Z,26.80
2017-08-02T17:05:53.059Z,26.70
2017-08-02T17:08:20.536Z,26.70
2017-08-02T17:10:46.975Z,26.60
2017-08-02T17:13:13.344Z,26.60
2017-08-02T17:15:40.403Z,26.40
2017-08-02T17:18:06.787Z,26.40
2017-08-02T17:20:33.152Z,26.40
2017-08-02T17:23:00.616Z,26.40
2017-08-02T17:25:27.011Z,26.40
2017-08-02T17:27:53.436Z,26.30
2017-08-02T17:30:19.823Z,26.30
2017-08-02T17:32:46.554Z,26.30
2017-08-02T17:35:13.432Z,26.30
2017-08-02T17:37:40.620Z,26.30
2017-08-02T17:40:07.131Z,26.30
2017-08-02T17:42:33.507Z,26.20
2017-08-02T17:45:00.603Z,26.10
2017-08-02T17:47:26.955Z,26.10
2017-08-02T17:49:53.387Z,26.10
2017-08-02T17:52:19.762Z,26.10
2017-08-02T17:54:46.135Z,26.10
2017-08-02T17:57:12.552Z,26.00
2017-08-02T17:59:38.921Z,25.90
2017-08-02T18:02:06.107Z,25.70
2017-08-02T18:04:32.446Z,25.70
2017-08-02T18:06:58.787Z,25.50
2017-08-02T18:09:25.154Z,25.40
2017-08-02T18:11:51.509Z,25.30
2017-08-02T18:14:17.907Z,25.20
2017-08-02T18:16:44.379Z,25.10
2017-08-02T18:19:10.724Z,25.00
2017-08-02T18:21:37.194Z,24.90
2017-08-02T18:24:04.382Z,24.70
2017-08-02T18:26:30.808Z,24.70
2017-08-02T18:28:57.168Z,24.50
2017-08-02T18:31:24.304Z,24.40
2017-08-02T18:33:51.708Z,24.40
2017-08-02T18:36:18.100Z,24.30
2017-08-02T18:38:44.478Z,24.20
2017-08-02T18:41:10.893Z,24.10
2017-08-02T18:43:37.238Z,24.10
2017-08-02T18:46:03.624Z,24.00
2017-08-02T18:48:30.189Z,24.00
2017-08-02T18:50:56.595Z,23.90
2017-08-02T18:53:23.344Z,23.80
2017-08-02T18:55:50.089Z,23.80
2017-08-02T18:58:17.549Z,23.70
2017-08-02T19:00:44.178Z,23.70
2017-08-02T19:03:10.826Z,23.60
2017-08-02T19:05:37.843Z,23.60
2017-08-02T19:08:04.741Z,23.60
2017-08-02T19:10:32.059Z,23.50
2017-08-02T19:12:59.236Z,23.50
2017-08-02T19:15:26.587Z,23.40
2017-08-02T19:17:54.203Z,23.40
2017-08-02T19:20:21.720Z,23.30
2017-08-02T19:22:49.258Z,23.30
2017-08-02T19:25:17.483Z,23.20
2017-08-02T19:27:45.374Z,23.10
2017-08-02T19:30:13.302Z,23.10
2017-08-02T19:32:41.249Z,23.10
2017-08-02T19:35:09.165Z,23.00
2017-08-02T19:37:37.190Z,22.90
2017-08-02T19:40:05.102Z,22.80
2017-08-02T19:42:32.879Z,22.80
2017-08-02T19:45:00.847Z,22.70
2017-08-02T19:47:28.793Z,22.70
2017-08-02T19:49:57.380Z,22.50
2017-08-02T19:52:25.404Z,22.50
2017-08-02T19:54:54.041Z,22.40
2017-08-02T19:57:21.862Z,22.40
2017-08-02T19:59:49.913Z,22.40
2017-08-02T20:02:17.877Z,22.30
2017-08-02T20:04:45.629Z,22.30
2017-08-02T20:07:13.503Z,22.30
2017-08-02T20:09:41.458Z,22.20
2017-08-02T20:12:09.260Z,22.20
2017-08-02T20:14:37.275Z,22.10
2017-08-02T20:17:05.324Z,22.10
2017-08-02T20:19:33.135Z,22.00
2017-08-02T20:22:00.963Z,22.00
2017-08-02T20:24:28.936Z,21.90
2017-08-02T20:26:56.656Z,21.80
2017-08-02T20:29:24.444Z,21.80
2017-08-02T20:31:52.811Z,21.80
2017-08-02T20:34:20.572Z,21.60
2017-08-02T20:36:48.362Z,21.60
2017-08-02T20:39:16.204Z,21.60
2017-08-02T20:41:45.571Z,21.50
2017-08-02T20:44:13.547Z,21.50
2017-08-02T20:46:40.687Z,21.40
2017-08-02T20:49:07.507Z,21.40
2017-08-02T20:51:34.096Z,21.30
2017-08-02T20:54:01.541Z,21.20
2017-08-02T20:56:28.130Z,21.20
2017-08-02T20:58:54.658Z,21.20
2017-08-02T21:01:21.148Z,21.10
2017-08-02T21:03:47.606Z,21.10
2017-08-02T21:06:14.022Z,21.00
2017-08-02T21:08:40.368Z,21.00
2017-08-02T21:11:06.777Z,21.00
2017-08-02T21:13:33.175Z,20.90
2017-08-02T21:15:59.555Z,20.90
2017-08-02T21:18:25.995Z,20.80
2017-08-02T21:20:52.820Z,20.80
2017-08-02T21:23:19.215Z,20.70
2017-08-02T21:25:46.355Z,20.60
2017-08-02T21:28:13.512Z,20.60
2017-08-02T21:30:40.959Z,20.50
2017-08-02T21:33:07.306Z,20.50
2017-08-02T21:35:33.751Z,20.40
2017-08-02T21:38:00.151Z,20.40
2017-08-02T21:40:26.523Z,20.40
2017-08-02T21:42:52.925Z,20.30
2017-08-02T21:45:19.323Z,20.30
2017-08-02T21:47:46.431Z,20.30
2017-08-02T21:50:12.851Z,20.30
2017-08-02T21:52:39.959Z,20.20
2017-08-02T21:55:06.318Z,20.20
2017-08-02T21:57:33.458Z,20.30
2017-08-02T21:59:59.847Z,20.30
2017-08-02T22:02:26.253Z,20.30
2017-08-02T22:04:52.668Z,20.20
2017-08-02T22:07:20.080Z,20.20
2017-08-02T22:09:46.451Z,20.20
2017-08-02T22:12:14.107Z,20.10
2017-08-02T22:14:40.487Z,20.20
2017-08-02T22:17:06.899Z,20.10
2017-08-02T22:19:33.244Z,20.20
2017-08-02T22:22:00.342Z,20.20
2017-08-02T22:24:26.712Z,20.20
2017-08-02T22:26:53.124Z,20.10
2017-08-02T22:29:20.376Z,20.10
2017-08-02T22:31:46.705Z,20.10
2017-08-02T22:34:13.028Z,20.10
2017-08-02T22:36:39.444Z,20.10
2017-08-02T22:39:08.530Z,20.10
2017-08-02T22:41:34.925Z,20.10
2017-08-02T22:44:01.371Z,20.00
2017-08-02T22:46:28.775Z,20.00
2017-08-02T22:48:55.172Z,20.00
2017-08-02T22:51:21.571Z,20.00
2017-08-02T22:53:47.907Z,20.00
2017-08-02T22:56:15.027Z,20.00
2017-08-02T22:58:41.400Z,19.90
2017-08-02T23:01:07.770Z,20.00
2017-08-02T23:03:34.891Z,20.00
2017-08-02T23:06:01.295Z,19.90
2017-08-02T23:08:27.630Z,19.90
2017-08-02T23:10:54.794Z,20.00
2017-08-02T23:13:21.159Z,20.00
2017-08-02T23:15:47.533Z,20.00
2017-08-02T23:18:13.949Z,19.90
2017-08-02T23:20:40.389Z,20.00
2017-08-02T23:23:06.752Z,20.00
2017-08-02T23:25:33.855Z,20.00
2017-08-02T23:28:00.267Z,19.90
2017-08-02T23:30:26.664Z,20.00
2017-08-02T23:32:53.031Z,19.90
2017-08-02T23:35:19.395Z,19.90
2017-08-02T23:37:45.779Z,19.90
2017-08-02T23:40:12.901Z,19.90
2017-08-02T23:42:39.276Z,19.90
2017-08-02T23:45:05.599Z,19.90
2017-08-02T23:47:31.954Z,19.90
2017-08-02T23:49:58.306Z,19.90
2017-08-02T23:52:24.682Z,19.90
2017-08-02T23:54:51.079Z,19.90
2017-08-02T23:57:18.179Z,19.90
2017-08-02T23:59:44.539Z,19.90
